Time;durP1;ratioP1;P1;durP2;ratioP2;P2;SDS_P1;SDS_P2;PMS_P1;PMS_P2;Temp;Humidity;BMP_temperature;BMP_pressure;BME280_temperature;BME280_humidity;BME280_pressure;Samples;Min_cycle;Max_cycle;Signal;HPM_P1;HPM_P2
2022/10/13 00:02:54;;;;;;;9.97;4.37;;;;;;;7.27;100.00;101467.31;5997945;28;20202;-66
2022/10/13 00:05:49;;;;;;;10.17;4.63;;;;;;;7.14;100.00;101467.31;5998319;28;20037;-66
2022/10/13 00:08:45;;;;;;;9.35;4.30;;;;;;;7.17;100.00;101467.94;5998593;28;20921;-66
2022/10/13 00:11:40;;;;;;;14.50;5.03;;;;;;;7.19;100.00;101468.69;5997385;28;20088;-66
2022/10/13 00:14:36;;;;;;;10.93;5.27;;;;;;;6.88;100.00;101465.59;6002930;28;20038;-67
2022/10/13 00:17:31;;;;;;;11.40;4.60;;;;;;;6.89;100.00;101470.78;6002744;28;20039;-66
2022/10/13 00:20:27;;;;;;;11.75;4.57;;;;;;;7.04;100.00;101453.06;6002232;28;20030;-66
2022/10/13 00:23:23;;;;;;;9.60;4.30;;;;;;;7.14;100.00;101449.72;6002704;28;20046;-67
2022/10/13 00:26:20;;;;;;;13.57;5.28;;;;;;;7.04;100.00;101442.50;6002416;28;20286;-67
2022/10/13 00:29:16;;;;;;;11.18;5.00;;;;;;;7.28;100.00;101455.81;6002752;28;20031;-66
2022/10/13 00:32:11;;;;;;;10.80;4.73;;;;;;;7.25;100.00;101445.47;6001744;28;20034;-66
2022/10/13 00:35:07;;;;;;;11.67;5.37;;;;;;;7.15;100.00;101427.66;6002489;28;20479;-66
2022/10/13 00:38:02;;;;;;;12.00;5.07;;;;;;;7.19;100.00;101425.66;6002425;28;20558;-66
2022/10/13 00:40:57;;;;;;;10.30;4.70;;;;;;;7.11;100.00;101431.47;6001686;28;20030;-66
2022/10/13 00:43:58;;;;;;;12.10;5.23;;;;;;;6.99;100.00;101445.47;6002392;28;20051;-66
2022/10/13 00:46:54;;;;;;;11.57;5.07;;;;;;;7.13;100.00;101436.63;6002212;28;20282;-66
2022/10/13 00:49:49;;;;;;;10.77;4.93;;;;;;;6.73;100.00;101449.03;6001348;28;20145;-66
2022/10/13 00:52:46;;;;;;;13.25;4.95;;;;;;;6.90;100.00;101445.28;6001907;28;20113;-66
2022/10/13 00:55:42;;;;;;;14.10;5.07;;;;;;;7.05;100.00;101434.50;6002099;28;20035;-66
2022/10/13 00:58:38;;;;;;;11.73;5.35;;;;;;;7.01;100.00;101443.56;6000909;28;20458;-66
2022/10/13 01:01:34;;;;;;;13.80;5.00;;;;;;;6.72;100.00;101447.34;6000255;28;20030;-66
2022/10/13 01:04:32;;;;;;;15.35;5.68;;;;;;;6.44;100.00;101437.81;6002223;28;20030;-66
2022/10/13 01:07:28;;;;;;;15.82;5.70;;;;;;;6.39;100.00;101431.16;6000743;28;20118;-66
2022/10/13 01:10:39;;;;;;;13.88;5.53;;;;;;;6.60;100.00;101443.75;6000894;28;20488;-67
2022/10/13 01:13:58;;;;;;;14.48;6.35;;;;;;;6.62;100.00;101441.00;6000575;28;20035;-66
2022/10/13 01:17:15;;;;;;;13.95;5.70;;;;;;;6.91;100.00;101436.41;6000227;28;20035;-67
2022/10/13 01:20:19;;;;;;;13.60;5.65;;;;;;;6.95;100.00;101438.75;6000801;28;20126;-67
2022/10/13 01:23:15;;;;;;;17.40;5.70;;;;;;;7.02;100.00;101434.72;6002226;28;20510;-66
2022/10/13 01:26:38;;;;;;;12.63;4.88;;;;;;;7.28;100.00;101432.06;6000972;28;20097;-67
2022/10/13 01:29:50;;;;;;;14.85;5.85;;;;;;;7.56;100.00;101422.09;6001408;28;20038;-67
2022/10/13 01:33:13;;;;;;;13.68;5.28;;;;;;;7.75;100.00;101419.81;6000627;28;20528;-67
2022/10/13 01:36:25;;;;;;;12.32;5.75;;;;;;;7.79;100.00;101407.25;6015721;28;20031;-67
2022/10/13 01:39:35;;;;;;;16.38;5.50;;;;;;;7.91;100.00;101418.72;5999740;28;20030;-67
2022/10/13 01:42:36;;;;;;;10.45;4.80;;;;;;;8.02;100.00;101410.84;5999491;28;20035;-66
2022/10/13 01:45:37;;;;;;;8.93;4.35;;;;;;;7.97;100.00;101419.09;6016306;28;20529;-67
2022/10/13 01:48:33;;;;;;;13.48;4.50;;;;;;;8.02;100.00;101414.31;6016172;28;20034;-67
2022/10/13 01:51:30;;;;;;;14.57;5.00;;;;;;;8.03;100.00;101413.38;5999145;28;20117;-66
2022/10/13 01:54:25;;;;;;;10.73;5.15;;;;;;;8.23;100.00;101401.34;6001117;28;20037;-66
2022/10/13 01:57:36;;;;;;;11.50;5.33;;;;;;;7.95;99.54;101399.91;6001685;28;20153;-67
2022/10/13 02:00:35;;;;;;;14.82;5.20;;;;;;;7.92;100.00;101381.63;5988102;28;20796;-66
2022/10/13 02:03:43;;;;;;;12.10;5.03;;;;;;;8.00;100.00;101384.56;5999655;28;20113;-66
2022/10/13 02:06:53;;;;;;;11.25;4.43;;;;;;;8.02;100.00;101390.56;5999299;28;20490;-67
2022/10/13 02:10:16;;;;;;;20.15;5.90;;;;;;;7.96;100.00;101388.41;5999326;28;20039;-66
2022/10/13 02:13:13;;;;;;;16.65;5.70;;;;;;;7.99;100.00;101380.22;6015760;28;20042;-67
2022/10/13 02:16:09;;;;;;;14.52;5.50;;;;;;;8.06;100.00;101381.47;6015349;28;20085;-67
2022/10/13 02:19:05;;;;;;;17.50;5.47;;;;;;;8.17;100.00;101378.03;6000259;28;20538;-67
2022/10/13 02:22:04;;;;;;;14.95;6.07;;;;;;;8.23;100.00;101359.09;5998838;28;20118;-66
2022/10/13 02:24:59;;;;;;;13.95;5.45;;;;;;;8.33;100.00;101368.88;6000018;28;20053;-67
2022/10/13 02:27:57;;;;;;;16.07;6.33;;;;;;;8.33;100.00;101368.03;6000482;28;20046;-66
2022/10/13 02:30:53;;;;;;;11.63;5.72;;;;;;;8.40;100.00;101360.50;5997981;28;20092;-67
2022/10/13 02:33:48;;;;;;;18.17;6.22;;;;;;;8.18;100.00;101325.06;6000311;28;20423;-66
2022/10/13 02:36:43;;;;;;;13.17;5.63;;;;;;;8.32;100.00;101351.31;5999021;28;20046;-66
2022/10/13 02:39:39;;;;;;;13.83;6.37;;;;;;;8.38;100.00;101350.88;6000035;28;20046;-66
2022/10/13 02:42:34;;;;;;;15.15;6.57;;;;;;;8.41;100.00;101351.59;5999400;28;20089;-66
2022/10/13 02:45:30;;;;;;;18.17;8.07;;;;;;;8.53;100.00;101359.44;5999676;28;20089;-67
2022/10/13 02:48:25;;;;;;;14.88;6.38;;;;;;;8.54;100.00;101361.09;6000008;28;20312;-67
2022/10/13 02:51:21;;;;;;;16.93;6.30;;;;;;;8.56;100.00;101350.44;5999472;28;20038;-66
2022/10/13 02:54:16;;;;;;;17.55;7.15;;;;;;;8.64;100.00;101356.78;5999677;28;20030;-67
2022/10/13 02:57:11;;;;;;;14.10;6.90;;;;;;;8.71;100.00;101363.31;5999628;28;20062;-66
2022/10/13 03:00:07;;;;;;;15.40;6.80;;;;;;;8.78;100.00;101353.09;5998683;28;20418;-66
2022/10/13 03:03:03;;;;;;;14.32;6.45;;;;;;;8.73;100.00;101355.25;5999609;28;20341;-66
2022/10/13 03:05:58;;;;;;;18.03;7.00;;;;;;;8.84;100.00;101356.09;5999477;28;20538;-66
2022/10/13 03:08:53;;;;;;;17.50;6.70;;;;;;;8.89;100.00;101355.75;5998920;28;20034;-66
2022/10/13 03:11:49;;;;;;;14.57;5.90;;;;;;;8.81;100.00;101358.13;5998798;28;20078;-66
2022/10/13 03:14:44;;;;;;;20.77;7.37;;;;;;;8.87;100.00;101362.97;5999242;28;20032;-66
2022/10/13 03:17:39;;;;;;;14.93;6.43;;;;;;;8.80;100.00;101367.06;5999323;28;20043;-66
2022/10/13 03:20:35;;;;;;;18.77;6.40;;;;;;;8.73;100.00;101349.97;5999026;28;20054;-66
2022/10/13 03:23:30;;;;;;;11.93;5.87;;;;;;;8.73;100.00;101352.59;5998243;28;20090;-66
2022/10/13 03:26:26;;;;;;;14.77;6.28;;;;;;;8.68;100.00;101352.13;5998960;28;20054;-66
2022/10/13 03:29:22;;;;;;;11.85;6.05;;;;;;;8.55;100.00;101361.97;5998747;28;20062;-66
2022/10/13 03:32:17;;;;;;;12.20;5.25;;;;;;;8.47;100.00;101364.34;5998307;28;20088;-66
2022/10/13 03:35:12;;;;;;;12.40;5.77;;;;;;;8.36;100.00;101351.94;5998924;28;20426;-67
2022/10/13 03:38:08;;;;;;;16.17;5.97;;;;;;;8.37;100.00;101341.25;5998522;28;20530;-66
2022/10/13 03:41:14;;;;;;;17.80;6.35;;;;;;;8.34;100.00;101344.13;5998442;28;20496;-66
2022/10/13 03:44:12;;;;;;;14.57;5.95;;;;;;;8.30;100.00;101353.25;5999033;28;20468;-66
2022/10/13 03:47:07;;;;;;;14.18;6.20;;;;;;;8.33;100.00;101336.31;5998840;28;20037;-66
2022/10/13 03:50:04;;;;;;;14.47;5.97;;;;;;;8.52;100.00;101348.97;5998361;28;20035;-67
2022/10/13 03:52:59;;;;;;;13.48;7.10;;;;;;;8.52;100.00;101330.47;5997324;28;20459;-66
2022/10/13 03:55:55;;;;;;;14.77;6.23;;;;;;;8.51;100.00;101334.06;5998735;28;20093;-66
2022/10/13 03:58:58;;;;;;;14.80;6.00;;;;;;;8.55;100.00;101336.38;5997548;28;20660;-66
2022/10/13 04:01:54;;;;;;;15.55;5.32;;;;;;;8.67;100.00;101350.44;5997883;28;20089;-66
2022/10/13 04:04:50;;;;;;;25.08;7.57;;;;;;;8.76;100.00;101337.34;5998336;28;20030;-67
2022/10/13 04:07:45;;;;;;;18.33;6.93;;;;;;;8.91;100.00;101338.78;5998797;28;20479;-66
2022/10/13 04:10:41;;;;;;;18.73;7.07;;;;;;;8.93;100.00;101333.41;5998204;28;20041;-66
2022/10/13 04:13:36;;;;;;;15.45;6.25;;;;;;;8.89;100.00;101339.88;5997918;28;20098;-66
2022/10/13 04:16:31;;;;;;;17.77;7.07;;;;;;;8.91;100.00;101343.25;5998458;28;20061;-66
2022/10/13 04:19:28;;;;;;;16.90;6.50;;;;;;;8.93;100.00;101330.75;5998379;28;20023;-66
2022/10/13 04:22:24;;;;;;;14.60;6.95;;;;;;;9.02;100.00;101340.63;5998177;28;20041;-66
2022/10/13 04:25:19;;;;;;;18.60;6.93;;;;;;;9.11;100.00;101347.81;5998360;28;20055;-66
2022/10/13 04:28:14;;;;;;;16.05;6.80;;;;;;;9.14;100.00;101341.44;5998435;28;20106;-66
2022/10/13 04:31:10;;;;;;;15.23;6.75;;;;;;;9.09;100.00;101341.81;5998080;28;20027;-66
2022/10/13 04:34:06;;;;;;;17.33;6.63;;;;;;;9.11;100.00;101345.16;5998348;28;20035;-66
2022/10/13 04:37:01;;;;;;;14.85;6.82;;;;;;;9.07;100.00;101348.19;5997587;28;20045;-66
2022/10/13 04:39:57;;;;;;;16.17;7.53;;;;;;;9.06;100.00;101344.69;5998169;28;20046;-66
2022/10/13 04:42:52;;;;;;;17.10;7.60;;;;;;;9.06;100.00;101335.91;5997576;28;20039;-67
2022/10/13 04:45:48;;;;;;;15.90;6.70;;;;;;;8.99;100.00;101324.97;5998476;28;20109;-66
2022/10/13 04:48:44;;;;;;;17.40;6.97;;;;;;;8.99;100.00;101335.56;5998199;28;20783;-66
2022/10/13 04:51:39;;;;;;;14.18;7.18;;;;;;;8.80;100.00;101319.44;5998186;28;20035;-66
2022/10/13 04:54:35;;;;;;;15.57;6.33;;;;;;;8.75;100.00;101326.91;5997726;28;20026;-66
2022/10/13 04:57:30;;;;;;;15.77;6.67;;;;;;;8.84;100.00;101337.59;5997807;28;20042;-66
2022/10/13 05:00:25;;;;;;;17.90;7.53;;;;;;;8.89;100.00;101324.00;5999719;28;20109;-66
2022/10/13 05:03:21;;;;;;;19.17;7.13;;;;;;;8.83;100.00;101332.44;6001572;28;20039;-66
2022/10/13 05:06:20;;;;;;;26.83;7.72;;;;;;;8.85;100.00;101328.72;6002321;28;20177;-66
2022/10/13 05:09:15;;;;;;;17.85;7.85;;;;;;;8.81;100.00;101326.41;6001856;28;20429;-66
2022/10/13 05:12:10;;;;;;;17.48;7.65;;;;;;;8.79;100.00;101328.34;6001508;28;20034;-66
2022/10/13 05:15:06;;;;;;;21.60;8.23;;;;;;;8.79;100.00;101326.53;6002246;28;20059;-66
2022/10/13 05:18:02;;;;;;;21.83;8.93;;;;;;;8.75;100.00;101311.03;6001721;28;20037;-66
2022/10/13 05:21:08;;;;;;;23.53;9.30;;;;;;;8.83;100.00;101319.22;6001326;28;20467;-66
2022/10/13 05:24:05;;;;;;;29.10;10.13;;;;;;;8.86;100.00;101319.78;5995003;28;20281;-66
2022/10/13 05:27:06;;;;;;;24.10;10.13;;;;;;;8.79;100.00;101307.19;6001861;28;20031;-66
2022/10/13 05:30:01;;;;;;;;;;;;;;;8.88;100.00;101314.41;6001823;28;20110;-66
2022/10/13 05:32:57;;;;;;;23.83;8.93;;;;;;;8.83;100.00;101298.06;6001006;28;19914;-66
2022/10/13 05:35:52;;;;;;;23.58;9.50;;;;;;;8.86;100.00;101295.16;6001169;28;20023;-66
2022/10/13 05:38:55;;;;;;;21.03;9.30;;;;;;;8.93;100.00;101309.59;6001397;28;20038;-66
2022/10/13 05:41:50;;;;;;;28.67;10.82;;;;;;;8.96;100.00;101309.34;5999406;28;20030;-66
2022/10/13 05:44:45;;;;;;;23.10;9.47;;;;;;;8.98;100.00;101313.56;6001505;28;20023;-67
2022/10/13 05:47:41;;;;;;;31.27;10.00;;;;;;;8.94;100.00;101298.06;6001602;28;20039;-66
2022/10/13 05:50:36;;;;;;;21.87;9.17;;;;;;;9.04;100.00;101314.88;5999958;28;20039;-66
2022/10/13 05:53:35;;;;;;;24.85;9.23;;;;;;;8.94;100.00;101298.88;5999509;28;20070;-67
2022/10/13 05:56:40;;;;;;;24.63;8.10;;;;;;;9.02;100.00;101310.66;5995877;28;20031;-67
2022/10/13 05:59:39;;;;;;;21.60;8.65;;;;;;;9.03;100.00;101309.69;5992927;28;20037;-67
2022/10/13 06:02:51;;;;;;;22.13;9.65;;;;;;;9.04;100.00;101306.94;6000268;28;20121;-66
2022/10/13 06:05:47;;;;;;;26.20;10.57;;;;;;;8.89;100.00;101277.25;6000799;28;20034;-66
2022/10/13 06:08:43;;;;;;;21.75;10.18;;;;;;;9.02;100.00;101292.16;6001252;28;20514;-66
2022/10/13 06:11:38;;;;;;;24.40;9.40;;;;;;;8.96;100.00;101288.19;5998311;28;20039;-66
2022/10/13 06:14:33;;;;;;;27.43;9.90;;;;;;;9.05;100.00;101283.97;5999999;28;20031;-66
2022/10/13 06:17:29;;;;;;;21.13;9.45;;;;;;;9.08;100.00;101275.81;6000620;28;21045;-66
2022/10/13 06:20:26;;;;;;;27.40;9.88;;;;;;;9.19;100.00;101286.34;5999524;28;20701;-66
2022/10/13 06:23:21;;;;;;;26.63;10.68;;;;;;;9.23;100.00;101285.16;6000266;28;20070;-66
2022/10/13 06:26:17;;;;;;;35.80;12.27;;;;;;;9.18;100.00;101264.34;6000347;28;20727;-66
2022/10/13 06:29:12;;;;;;;24.20;10.47;;;;;;;9.33;100.00;101276.34;5987946;28;20259;-66
2022/10/13 06:32:12;;;;;;;23.33;11.43;;;;;;;9.40;100.00;101272.22;5999892;28;20309;-66
2022/10/13 06:35:07;;;;;;;24.92;9.45;;;;;;;9.52;100.00;101275.66;6000039;28;20031;-66
2022/10/13 06:38:03;;;;;;;27.60;11.18;;;;;;;9.66;100.00;101283.34;6000140;28;20094;-66
2022/10/13 06:41:03;;;;;;;26.52;10.23;;;;;;;9.75;100.00;101271.16;5999096;28;20086;-66
2022/10/13 06:43:58;;;;;;;24.20;9.93;;;;;;;9.92;100.00;101289.13;6000229;28;20045;-66
2022/10/13 06:46:54;;;;;;;22.67;10.83;;;;;;;9.86;100.00;101281.69;6000197;28;20039;-66
2022/10/13 06:49:50;;;;;;;25.47;9.03;;;;;;;9.96;100.00;101286.09;5999824;28;20026;-66
2022/10/13 06:52:45;;;;;;;25.45;9.40;;;;;;;10.03;100.00;101278.44;5999174;28;20035;-66
2022/10/13 06:55:42;;;;;;;23.80;10.10;;;;;;;10.08;99.90;101276.28;5999858;28;20094;-66
2022/10/13 06:58:37;;;;;;;23.58;9.57;;;;;;;10.06;99.80;101279.03;5999524;28;20033;-66
2022/10/13 07:01:33;;;;;;;24.83;9.03;;;;;;;10.00;99.83;101274.25;5999102;28;20031;-66
2022/10/13 07:04:28;;;;;;;21.47;8.50;;;;;;;10.13;99.66;101282.06;5999225;28;20066;-66
2022/10/13 07:07:23;;;;;;;26.33;10.23;;;;;;;10.07;98.96;101282.53;5999777;28;20033;-66
2022/10/13 07:10:19;;;;;;;21.20;9.67;;;;;;;10.10;99.63;101277.00;5998849;28;20404;-66
2022/10/13 07:13:14;;;;;;;23.52;8.57;;;;;;;10.09;99.39;101270.84;5999604;28;20707;-66
2022/10/13 07:16:10;;;;;;;27.40;9.60;;;;;;;10.29;98.76;101265.69;5999473;28;20386;-66
2022/10/13 07:19:05;;;;;;;21.50;8.93;;;;;;;10.20;98.39;101262.00;5999348;28;20483;-66
2022/10/13 07:22:00;;;;;;;21.47;9.50;;;;;;;10.23;98.58;101267.06;5998495;28;20034;-66
2022/10/13 07:24:56;;;;;;;27.37;9.93;;;;;;;10.31;98.35;101275.19;5999108;28;20038;-66
2022/10/13 07:27:51;;;;;;;23.35;9.43;;;;;;;10.33;98.52;101273.25;5998981;28;20474;-66
2022/10/13 07:30:46;;;;;;;19.23;9.70;;;;;;;10.30;98.32;101262.91;5998230;28;20031;-66
2022/10/13 07:33:44;;;;;;;27.67;9.97;;;;;;;10.44;98.29;101265.22;5997796;28;20038;-66
2022/10/13 07:36:40;;;;;;;22.65;10.55;;;;;;;10.47;97.94;101264.13;5983345;28;20430;-67
2022/10/13 07:39:36;;;;;;;22.33;9.10;;;;;;;10.50;97.49;101285.06;5997304;28;20097;-66
2022/10/13 07:42:31;;;;;;;21.87;10.00;;;;;;;10.56;97.45;101290.69;5998478;28;20031;-66
2022/10/13 07:45:27;;;;;;;23.30;9.48;;;;;;;10.56;97.46;101290.69;5997970;28;20078;-66
2022/10/13 07:48:22;;;;;;;20.35;8.70;;;;;;;10.49;97.39;101278.91;5997822;28;20501;-66
2022/10/13 07:51:17;;;;;;;20.43;9.23;;;;;;;10.49;97.07;101272.81;5997969;28;20463;-66
2022/10/13 07:54:13;;;;;;;20.33;9.30;;;;;;;10.51;98.04;101290.25;5997963;28;20482;-66
2022/10/13 07:57:08;;;;;;;22.30;8.82;;;;;;;10.57;97.38;101281.75;5998412;28;20023;-66
2022/10/13 08:00:05;;;;;;;22.37;9.47;;;;;;;10.61;97.74;101266.44;5997047;28;20382;-66
2022/10/13 08:03:00;;;;;;;23.77;8.80;;;;;;;10.64;98.03;101272.31;5997488;28;20316;-66
2022/10/13 08:05:58;;;;;;;20.43;8.77;;;;;;;10.90;97.18;101271.88;5997929;28;20711;-66
2022/10/13 08:08:53;;;;;;;21.77;8.80;;;;;;;11.13;95.89;101268.84;5995960;28;20494;-66
2022/10/13 08:11:49;;;;;;;18.63;8.68;;;;;;;11.28;94.66;101261.31;5997083;28;20041;-66
2022/10/13 08:14:44;;;;;;;24.67;9.43;;;;;;;11.45;93.45;101265.97;5997106;28;20046;-66
2022/10/13 08:17:39;;;;;;;22.37;9.73;;;;;;;11.48;92.82;101254.22;5998345;28;20293;-66
2022/10/13 08:20:38;;;;;;;26.20;9.87;;;;;;;11.56;93.05;101249.91;5998066;28;20038;-66
2022/10/13 08:23:34;;;;;;;18.65;9.15;;;;;;;11.82;91.89;101245.72;6013231;28;20033;-66
2022/10/13 08:26:29;;;;;;;22.73;10.33;;;;;;;11.97;90.93;101264.75;5998712;28;20038;-66
2022/10/13 08:29:24;;;;;;;19.03;8.07;;;;;;;12.22;89.26;101245.56;5998329;28;20027;-66
2022/10/13 08:32:21;;;;;;;17.93;8.23;;;;;;;12.53;87.12;101251.47;5997592;28;20282;-66
2022/10/13 08:35:16;;;;;;;18.90;8.68;;;;;;;12.79;86.99;101252.50;6000186;28;20042;-66
2022/10/13 08:38:11;;;;;;;15.47;7.93;;;;;;;12.96;85.89;101248.22;6002374;28;20494;-66
2022/10/13 08:41:17;;;;;;;15.73;7.77;;;;;;;12.80;85.07;101232.88;6001773;28;20129;-66
2022/10/13 08:44:33;;;;;;;17.00;7.65;;;;;;;12.95;84.81;101234.06;6002458;28;20262;-66
2022/10/13 08:47:37;;;;;;;16.15;7.13;;;;;;;13.17;84.52;101232.00;5985629;28;20039;-66
2022/10/13 08:50:34;;;;;;;13.27;6.88;;;;;;;13.41;82.94;101216.28;6001281;28;20038;-66
2022/10/13 08:53:33;;;;;;;17.80;7.35;;;;;;;13.36;82.73;101221.22;6001388;28;20486;-66
2022/10/13 08:56:31;;;;;;;15.68;6.80;;;;;;;13.70;81.24;101238.19;6000362;28;20709;-66
2022/10/13 08:59:26;;;;;;;18.65;8.00;;;;;;;13.96;79.68;101233.75;6000602;28;20382;-67
2022/10/13 09:02:29;;;;;;;17.33;6.63;;;;;;;13.95;79.25;101226.75;6000200;28;20078;-66
2022/10/13 09:05:37;;;;;;;18.77;6.85;;;;;;;14.03;79.87;101232.13;6001523;28;20027;-67
2022/10/13 09:08:39;;;;;;;21.90;8.82;;;;;;;13.45;81.32;101231.78;6000505;28;20102;-66
2022/10/13 09:11:43;;;;;;;20.50;8.77;;;;;;;13.47;81.98;101226.31;5999505;28;20446;-66
2022/10/13 09:14:40;;;;;;;16.25;7.20;;;;;;;13.52;82.37;101227.53;6001922;28;20070;-66
2022/10/13 09:17:37;;;;;;;14.75;8.45;;;;;;;13.55;82.43;101213.06;6000380;28;20382;-66
2022/10/13 09:20:32;;;;;;;17.77;7.45;;;;;;;13.68;81.63;101224.19;6000833;28;20031;-66
2022/10/13 09:23:28;;;;;;;13.30;7.30;;;;;;;13.99;80.65;101228.13;6001250;28;20652;-67
2022/10/13 09:26:24;;;;;;;13.03;6.40;;;;;;;14.16;79.35;101223.72;6001525;28;20271;-67
2022/10/13 09:29:28;;;;;;;13.65;5.95;;;;;;;14.03;79.98;101229.47;6001824;28;20281;-67
2022/10/13 09:32:24;;;;;;;13.43;6.55;;;;;;;13.83;80.64;101228.00;6000996;28;20382;-67
2022/10/13 09:35:21;;;;;;;14.20;6.57;;;;;;;13.89;79.44;101221.22;6001931;28;20039;-67
2022/10/13 09:38:21;;;;;;;20.27;6.40;;;;;;;13.78;81.21;101229.44;6001286;28;20034;-66
2022/10/13 09:41:20;;;;;;;18.08;6.90;;;;;;;13.73;81.13;101221.88;6001105;28;20031;-67
2022/10/13 09:44:27;;;;;;;12.40;5.50;;;;;;;13.93;80.86;101233.22;6001349;28;20041;-67
2022/10/13 09:47:24;;;;;;;;;;;;;;;14.02;79.69;101227.78;6000390;28;20490;-67
2022/10/13 09:50:25;;;;;;;10.75;5.70;;;;;;;14.28;78.99;101225.97;6000546;28;19914;-67
2022/10/13 09:53:34;;;;;;;12.25;6.07;;;;;;;14.39;78.33;101229.41;5999838;28;20034;-67
2022/10/13 09:56:42;;;;;;;16.27;5.55;;;;;;;14.76;77.54;101221.91;6000093;28;20037;-66
2022/10/13 10:00:13;;;;;;;16.35;7.50;;;;;;;15.19;75.54;101240.41;5999616;28;20121;-67
2022/10/13 10:03:15;;;;;;;12.38;5.47;;;;;;;15.30;74.79;101232.09;5996833;28;20039;-66
2022/10/13 10:06:14;;;;;;;17.05;5.50;;;;;;;15.28;74.05;101234.09;5998470;28;20058;-67
2022/10/13 10:09:35;;;;;;;11.50;4.70;;;;;;;15.39;75.77;101232.97;6000176;28;20030;-66
2022/10/13 10:12:35;;;;;;;10.30;5.20;;;;;;;15.28;74.87;101234.09;5999149;28;20532;-67
2022/10/13 10:15:56;;;;;;;12.43;5.30;;;;;;;15.25;74.42;101223.75;6000416;28;20038;-67
2022/10/13 10:19:02;;;;;;;11.70;5.10;;;;;;;15.24;74.18;101223.91;5999052;28;20208;-67
2022/10/13 10:22:11;;;;;;;13.07;6.32;;;;;;;15.28;73.63;101217.22;5997600;28;20108;-67
2022/10/13 10:25:26;;;;;;;12.07;5.13;;;;;;;15.48;73.26;101224.84;6015361;28;20565;-67
2022/10/13 10:28:36;;;;;;;13.40;5.22;;;;;;;15.53;73.48;101226.16;6000224;28;20035;-67
2022/10/13 10:31:49;;;;;;;10.80;5.20;;;;;;;15.86;71.82;101217.16;5999760;28;20445;-67
2022/10/13 10:34:50;;;;;;;12.00;5.45;;;;;;;15.71;72.43;101202.81;5998403;28;20479;-67
2022/10/13 10:37:45;;;;;;;10.10;4.78;;;;;;;16.15;72.30;101214.78;5999512;28;20446;-67
2022/10/13 10:40:49;;;;;;;14.03;4.67;;;;;;;16.35;71.44;101194.69;5998776;28;20038;-67
2022/10/13 10:44:01;;;;;;;10.93;4.53;;;;;;;16.97;67.87;101192.94;5995999;28;20399;-67
2022/10/13 10:47:01;;;;;;;9.23;4.32;;;;;;;16.95;67.66;101184.25;5999312;28;20042;-67
2022/10/13 10:50:01;;;;;;;;;;;;;;;16.83;68.12;101196.34;5998871;28;20057;-67
2022/10/13 10:52:59;;;;;;;11.32;4.65;;;;;;;16.93;68.11;101188.13;5999228;28;20680;-67
2022/10/13 10:55:59;;;;;;;10.63;3.92;;;;;;;16.78;68.12;101192.53;5999141;28;20046;-67
2022/10/13 10:59:16;;;;;;;10.43;4.05;;;;;;;16.89;68.96;101187.63;5997840;28;20126;-67
2022/10/13 11:02:39;;;;;;;9.23;4.28;;;;;;;16.92;67.07;101189.97;5998936;28;20037;-67
2022/10/13 11:05:56;;;;;;;9.43;3.53;;;;;;;17.07;66.86;101182.00;5999476;28;20026;-67
2022/10/13 11:08:54;;;;;;;8.57;3.90;;;;;;;16.83;67.32;101176.78;5988255;28;20038;-67
2022/10/13 11:11:49;;;;;;;10.52;4.70;;;;;;;16.81;67.75;101162.72;5997544;28;20030;-67
2022/10/13 11:14:53;;;;;;;10.13;4.53;;;;;;;16.97;66.93;101168.00;5993297;28;20031;-67
2022/10/13 11:17:49;;;;;;;8.82;3.90;;;;;;;16.96;67.45;101163.66;5996123;28;20612;-67
2022/10/13 11:20:57;;;;;;;8.70;4.10;;;;;;;16.85;67.86;101158.69;5998263;28;20034;-67
2022/10/13 11:23:52;;;;;;;8.63;3.55;;;;;;;16.78;69.08;101149.69;5999283;28;20039;-67
2022/10/13 11:26:47;;;;;;;8.95;3.97;;;;;;;16.89;67.63;101141.25;5998837;28;20038;-67
2022/10/13 11:29:43;;;;;;;8.52;3.53;;;;;;;17.01;68.16;101147.88;5999048;28;20518;-67
2022/10/13 11:32:43;;;;;;;9.90;3.88;;;;;;;16.70;66.55;101142.53;5998571;28;20039;-67
2022/10/13 11:35:39;;;;;;;8.48;3.38;;;;;;;16.59;68.82;101132.19;5999293;28;20097;-67
2022/10/13 11:38:36;;;;;;;12.07;3.77;;;;;;;16.94;68.67;101133.50;5997969;28;20039;-67
2022/10/13 11:41:39;;;;;;;9.88;3.75;;;;;;;17.04;67.45;101134.13;5997104;28;20727;-67
2022/10/13 11:45:02;;;;;;;8.68;3.97;;;;;;;17.14;67.03;101134.72;5997855;28;20144;-67
2022/10/13 11:48:28;;;;;;;7.50;3.70;;;;;;;17.26;65.88;101120.72;5998806;28;20527;-67
2022/10/13 11:51:51;;;;;;;11.13;4.32;;;;;;;17.20;65.54;101112.56;5997885;28;20390;-67
2022/10/13 11:55:00;;;;;;;11.07;4.18;;;;;;;17.40;64.00;101099.50;5999061;28;20051;-67
2022/10/13 11:58:18;;;;;;;7.40;3.45;;;;;;;17.62;63.35;101096.81;5997607;28;20038;-67
2022/10/13 12:01:15;;;;;;;6.93;3.47;;;;;;;17.78;63.22;101091.28;5998489;28;20039;-67
2022/10/13 12:04:12;;;;;;;8.43;3.72;;;;;;;18.08;62.22;101091.28;5998470;28;20035;-67
2022/10/13 12:07:10;;;;;;;6.25;3.20;;;;;;;18.10;63.16;101097.34;5998721;28;20038;-67
2022/10/13 12:10:07;;;;;;;10.48;3.75;;;;;;;18.20;61.07;101076.41;6016002;28;20086;-67
2022/10/13 12:13:03;;;;;;;8.48;3.60;;;;;;;17.84;62.00;101090.56;6002158;28;20039;-67
2022/10/13 12:16:05;;;;;;;6.90;3.28;;;;;;;17.88;61.82;101093.72;6001601;28;20069;-67
2022/10/13 12:19:09;;;;;;;9.40;3.72;;;;;;;17.57;62.64;101077.75;6001676;28;20034;-67
2022/10/13 12:22:11;;;;;;;8.35;3.50;;;;;;;18.02;60.60;101082.13;6003110;28;20042;-67
2022/10/13 12:25:06;;;;;;;7.45;3.38;;;;;;;17.85;59.62;101075.28;6003096;28;20038;-67
2022/10/13 12:28:02;;;;;;;7.20;2.80;;;;;;;17.73;59.31;101068.72;6002815;28;20038;-67
2022/10/13 12:30:58;;;;;;;10.05;3.28;;;;;;;17.96;59.21;101082.06;6000601;28;20474;-67
2022/10/13 12:33:56;;;;;;;9.15;3.00;;;;;;;17.83;60.07;101070.09;6001765;28;20560;-67
2022/10/13 12:36:59;;;;;;;6.72;2.97;;;;;;;17.88;59.33;101082.16;6001530;28;20039;-67
2022/10/13 12:39:55;;;;;;;6.72;2.63;;;;;;;17.55;59.82;101082.47;6002274;28;20027;-67
2022/10/13 12:42:51;;;;;;;6.57;2.50;;;;;;;17.37;61.35;101073.88;6016758;28;20158;-67
2022/10/13 12:45:46;;;;;;;9.65;3.13;;;;;;;17.44;61.49;101076.69;6017401;28;20034;-67
2022/10/13 12:48:43;;;;;;;10.13;3.28;;;;;;;17.61;60.31;101078.22;6001448;28;20097;-67
2022/10/13 12:51:39;;;;;;;7.03;2.80;;;;;;;17.34;61.64;101079.59;6002036;28;20457;-67
2022/10/13 12:54:37;;;;;;;8.18;2.80;;;;;;;17.19;61.91;101076.88;6002170;28;20038;-68
2022/10/13 12:57:37;;;;;;;8.52;2.58;;;;;;;17.21;60.86;101079.38;6002463;28;20035;-67
2022/10/13 13:00:32;;;;;;;7.13;2.42;;;;;;;17.13;61.11;101082.13;6000179;28;20041;-67
2022/10/13 13:03:28;;;;;;;7.97;2.93;;;;;;;17.08;61.07;101068.44;6002390;28;20054;-67
2022/10/13 13:06:33;;;;;;;5.80;2.88;;;;;;;17.46;61.21;101072.81;6017316;28;20270;-67
2022/10/13 13:09:29;;;;;;;5.90;2.83;;;;;;;17.69;60.01;101060.19;6002569;28;20089;-67
2022/10/13 13:12:26;;;;;;;9.88;2.92;;;;;;;17.98;60.36;101070.13;6001762;28;20041;-67
2022/10/13 13:15:24;;;;;;;4.47;2.53;;;;;;;18.21;60.37;101064.63;5990543;28;20043;-67
2022/10/13 13:18:26;;;;;;;9.45;2.72;;;;;;;18.02;60.63;101076.75;6002264;28;20467;-67
2022/10/13 13:21:21;;;;;;;7.15;2.90;;;;;;;17.80;61.24;101067.78;6000375;28;20031;-67
2022/10/13 13:24:16;;;;;;;9.18;3.35;;;;;;;17.60;62.76;101061.31;6002020;28;20576;-67
2022/10/13 13:27:36;;;;;;;12.40;4.03;;;;;;;17.45;63.84;101071.13;6001347;28;20043;-67
2022/10/13 13:30:31;;;;;;;;;;;;;;;17.37;64.06;101065.84;5997700;28;20431;-67
2022/10/13 13:33:26;;;;;;;9.77;3.90;;;;;;;17.36;64.38;101056.16;6002002;28;19917;-67
2022/10/13 13:36:23;;;;;;;10.97;4.47;;;;;;;17.41;64.03;101061.78;6001726;28;20058;-67
2022/10/13 13:39:19;;;;;;;10.35;4.18;;;;;;;17.34;64.62;101049.31;6000279;28;20040;-67
2022/10/13 13:42:14;;;;;;;8.43;4.07;;;;;;;17.48;64.45;101052.00;6000380;28;20751;-67
2022/10/13 13:45:17;;;;;;;11.35;4.00;;;;;;;17.51;63.91;101045.44;6001525;28;20109;-67
2022/10/13 13:48:13;;;;;;;7.65;3.97;;;;;;;17.21;64.89;101050.72;6001252;28;20528;-67